Time;durP1;ratioP1;P1;durP2;ratioP2;P2;SDS_P1;SDS_P2;PMS_P1;PMS_P2;Temp;Humidity;BMP_temperature;BMP_pressure;BME280_temperature;BME280_humidity;BME280_pressure;Samples;Min_cycle;Max_cycle;Signal;HPM_P1;HPM_P2
2021/11/14 00:01:44;;;;;;;55.35;28.52;;;;;;;-0.64;82.32;98082.33;1693745;84;21440;-80
2021/11/14 00:04:11;;;;;;;60.00;28.83;;;;;;;-0.63;82.26;98081.47;1693972;84;21076;-80
2021/11/14 00:06:44;;;;;;;54.70;27.52;;;;;;;-0.62;82.45;98082.35;1676415;84;21060;-82
2021/11/14 00:09:13;;;;;;;53.38;26.37;;;;;;;-0.61;82.31;98077.18;1686180;83;21015;-81
2021/11/14 00:11:42;;;;;;;58.48;30.08;;;;;;;-0.60;82.56;98088.03;1692007;85;21066;-79
2021/11/14 00:14:09;;;;;;;57.17;29.10;;;;;;;-0.59;83.91;98077.17;1690895;85;21030;-78
2021/11/14 00:16:37;;;;;;;60.70;28.80;;;;;;;-0.57;83.98;98075.50;1692115;85;21036;-77
2021/11/14 00:19:05;;;;;;;55.85;27.02;;;;;;;-0.61;83.42;98085.40;1689151;85;21020;-79
2021/11/14 00:21:35;;;;;;;55.88;28.10;;;;;;;-0.60;83.37;98091.05;1688214;85;21072;-77
2021/11/14 00:24:01;;;;;;;59.85;28.92;;;;;;;-0.58;82.91;98088.92;1688212;85;21048;-76
2021/11/14 00:26:30;;;;;;;53.15;25.95;;;;;;;-0.63;83.85;98097.08;1685782;85;20979;-80
2021/11/14 00:28:56;;;;;;;50.67;25.40;;;;;;;-0.63;83.73;98091.88;1678913;84;21049;-77
2021/11/14 00:31:28;;;;;;;50.38;25.02;;;;;;;-0.62;83.39;98091.02;1691265;85;21096;-77
2021/11/14 00:33:55;;;;;;;46.33;25.12;;;;;;;-0.63;83.29;98091.02;1690161;83;21120;-76
2021/11/14 00:36:25;;;;;;;57.33;26.00;;;;;;;-0.61;83.11;98092.80;1694948;84;20994;-76
2021/11/14 00:38:53;;;;;;;44.05;23.05;;;;;;;-0.58;83.35;98088.92;1706739;84;21045;-76
2021/11/14 00:41:21;;;;;;;42.05;22.65;;;;;;;-0.57;83.11;98090.70;1706871;84;21018;-76
2021/11/14 00:43:49;;;;;;;49.38;22.77;;;;;;;-0.58;83.24;98089.37;1696487;84;21091;-75
2021/11/14 00:46:17;;;;;;;48.90;23.85;;;;;;;-0.61;83.37;98088.00;1705901;83;21057;-78
2021/11/14 00:48:44;;;;;;;45.28;23.00;;;;;;;-0.63;83.71;98089.72;1688036;83;20998;-76
2021/11/14 00:51:15;;;;;;;50.50;26.12;;;;;;;-0.63;83.82;98093.17;1685802;84;21034;-75
2021/11/14 00:53:42;;;;;;;47.27;24.10;;;;;;;-0.61;84.03;98095.81;1673762;84;21100;-79
2021/11/14 00:56:09;;;;;;;50.65;24.40;;;;;;;-0.63;83.78;98094.48;1690455;84;21427;-79
2021/11/14 00:58:35;;;;;;;48.23;24.32;;;;;;;-0.63;83.53;98094.92;1690470;83;20995;-75
2021/11/14 01:01:03;;;;;;;48.98;24.63;;;;;;;-0.71;83.40;98093.05;1692087;84;21040;-75
2021/11/14 01:03:29;;;;;;;52.65;25.88;;;;;;;-0.73;83.15;98092.58;1693434;84;21443;-79
2021/11/14 01:05:56;;;;;;;47.15;24.07;;;;;;;-0.78;83.08;98091.21;1699174;83;21022;-80
2021/11/14 01:08:28;;;;;;;49.18;25.55;;;;;;;-0.86;83.04;98089.77;1693149;83;21046;-81
2021/11/14 01:10:53;;;;;;;50.60;25.90;;;;;;;-0.84;83.18;98093.68;1676728;85;21509;-80
2021/11/14 01:13:21;;;;;;;47.55;25.05;;;;;;;-0.88;83.05;98101.86;1689864;83;21094;-76
2021/11/14 01:15:51;;;;;;;46.92;25.68;;;;;;;-0.95;83.10;98093.06;1704719;83;21047;-76
2021/11/14 01:18:21;;;;;;;50.33;25.32;;;;;;;-0.95;83.10;98090.47;1706355;83;21048;-75
2021/11/14 01:20:53;;;;;;;44.33;23.85;;;;;;;-0.99;83.16;98086.49;1704020;83;21024;-75
2021/11/14 01:23:21;;;;;;;45.28;24.37;;;;;;;-1.04;83.23;98090.30;1698101;82;21053;-76
2021/11/14 01:25:49;;;;;;;42.30;23.02;;;;;;;-1.05;83.15;98089.84;1705662;84;21493;-75
2021/11/14 01:28:17;;;;;;;44.03;23.30;;;;;;;-1.11;83.62;98098.44;1705934;84;21001;-75
2021/11/14 01:30:49;;;;;;;44.20;23.95;;;;;;;-1.14;83.20;98102.68;1706385;84;21000;-75
2021/11/14 01:33:19;;;;;;;44.75;23.45;;;;;;;-1.13;83.36;98105.76;1700688;83;21111;-75
2021/11/14 01:35:47;;;;;;;43.60;23.32;;;;;;;-1.13;83.41;98105.31;1706454;84;20996;-76
2021/11/14 01:38:15;;;;;;;47.58;24.07;;;;;;;-1.14;83.73;98102.68;1706608;84;21012;-76
2021/11/14 01:40:50;;;;;;;44.95;22.05;;;;;;;-1.13;83.64;98100.11;1706573;84;21461;-76
2021/11/14 01:43:24;;;;;;;41.25;21.52;;;;;;;-1.13;83.60;98103.16;1705876;84;21079;-76
2021/11/14 01:45:52;;;;;;;41.60;19.95;;;;;;;-1.15;83.49;98100.94;1677843;85;21011;-76
2021/11/14 01:48:20;;;;;;;41.63;21.02;;;;;;;-1.13;83.56;98110.96;1690497;82;21460;-76
2021/11/14 01:50:48;;;;;;;36.08;21.65;;;;;;;-1.19;83.68;98113.01;1705546;84;21477;-76
2021/11/14 01:53:15;;;;;;;39.63;22.32;;;;;;;-1.16;83.90;98111.75;1706417;84;21427;-76
2021/11/14 01:55:43;;;;;;;42.90;22.42;;;;;;;-1.16;83.64;98111.75;1705978;84;21041;-76
2021/11/14 01:58:18;;;;;;;44.00;23.18;;;;;;;-1.20;83.59;98108.22;1706595;84;21008;-76
2021/11/14 02:01:02;;;;;;;42.27;21.70;;;;;;;-1.16;83.93;98114.34;1706558;84;20978;-76
2021/11/14 02:03:30;;;;;;;46.58;22.07;;;;;;;-1.16;83.83;98119.55;1706735;84;21483;-75
2021/11/14 02:05:58;;;;;;;39.53;19.90;;;;;;;-1.13;83.86;98120.92;1701908;84;21040;-76
2021/11/14 02:08:25;;;;;;;43.08;19.87;;;;;;;-1.13;83.74;98120.06;1692216;85;21017;-76
2021/11/14 02:10:51;;;;;;;42.15;21.35;;;;;;;-1.14;84.00;98109.19;1690079;85;21009;-76
2021/11/14 02:13:19;;;;;;;41.18;19.70;;;;;;;-1.12;83.86;98120.06;1691286;83;21484;-76
2021/11/14 02:15:45;;;;;;;37.05;19.50;;;;;;;-1.13;83.77;98116.16;1693081;85;21452;-76
2021/11/14 02:18:14;;;;;;;33.53;18.42;;;;;;;-1.14;83.60;98111.78;1693006;85;21051;-76
2021/11/14 02:20:44;;;;;;;42.70;19.42;;;;;;;-1.17;83.67;98116.95;1692233;85;21038;-75
2021/11/14 02:23:16;;;;;;;37.83;20.37;;;;;;;-1.20;84.18;98112.56;1690107;85;21117;-75
2021/11/14 02:25:44;;;;;;;39.48;18.85;;;;;;;-1.15;84.03;98111.34;1689861;85;21028;-75
2021/11/14 02:28:11;;;;;;;42.10;20.52;;;;;;;-1.15;83.83;98112.23;1689885;85;21509;-75
2021/11/14 02:30:39;;;;;;;43.42;19.60;;;;;;;-1.16;84.02;98110.45;1692635;85;21004;-75
2021/11/14 02:33:06;;;;;;;38.55;21.57;;;;;;;-1.18;85.40;98106.06;1691489;84;21008;-76
2021/11/14 02:35:35;;;;;;;32.60;17.52;;;;;;;-1.20;84.34;98102.16;1690090;85;21057;-75
2021/11/14 02:38:02;;;;;;;36.70;19.77;;;;;;;-1.20;84.13;98109.52;1690789;83;21099;-75
2021/11/14 02:40:29;;;;;;;37.83;19.80;;;;;;;-1.16;84.13;98109.59;1692934;85;21061;-76
2021/11/14 02:42:55;;;;;;;37.53;19.12;;;;;;;-1.18;84.90;98113.87;1692876;85;21046;-76
2021/11/14 02:45:26;;;;;;;39.45;18.48;;;;;;;-1.18;84.71;98110.86;1691079;85;21053;-76
2021/11/14 02:47:54;;;;;;;35.85;18.48;;;;;;;-1.23;85.46;98105.98;1690130;85;21058;-76
2021/11/14 02:50:23;;;;;;;39.55;19.90;;;;;;;-1.29;84.58;98101.98;1690083;85;21495;-76
2021/11/14 02:52:51;;;;;;;45.17;19.77;;;;;;;-1.29;84.79;98102.84;1689955;84;21029;-75
2021/11/14 02:55:22;;;;;;;45.12;20.88;;;;;;;-1.31;84.78;98103.24;1690136;84;21463;-75
2021/11/14 02:57:49;;;;;;;39.25;18.10;;;;;;;-1.32;84.80;98100.20;1689415;85;21052;-75
2021/11/14 03:00:21;;;;;;;37.98;19.15;;;;;;;-1.31;85.03;98105.84;1689315;85;21024;-75
2021/11/14 03:02:48;;;;;;;43.95;20.05;;;;;;;-1.30;84.65;98104.13;1689885;83;21061;-75
2021/11/14 03:05:18;;;;;;;42.27;18.45;;;;;;;-1.31;84.25;98101.05;1692965;85;21039;-75
2021/11/14 03:07:46;;;;;;;38.67;21.52;;;;;;;-1.34;84.04;98107.07;1693133;84;21057;-75
2021/11/14 03:10:18;;;;;;;47.33;22.27;;;;;;;-1.38;84.09;98100.05;1693067;84;21466;-75
2021/11/14 03:12:59;;;;;;;49.10;22.10;;;;;;;-1.38;84.13;98100.05;1692827;85;21464;-75
2021/11/14 03:15:29;;;;;;;42.78;20.17;;;;;;;-1.41;84.30;98100.02;1690021;85;21005;-75
2021/11/14 03:17:56;;;;;;;39.67;19.87;;;;;;;-1.42;84.20;98103.02;1690095;85;21068;-75
2021/11/14 03:20:22;;;;;;;38.60;18.90;;;;;;;-1.39;84.29;98104.80;1690156;85;21447;-75
2021/11/14 03:22:49;;;;;;;37.93;17.98;;;;;;;-1.39;84.50;98100.50;1690221;84;21380;-75
2021/11/14 03:25:22;;;;;;;42.85;20.50;;;;;;;-1.38;84.51;98104.84;1690051;85;21037;-75
2021/11/14 03:27:52;;;;;;;44.15;19.75;;;;;;;-1.34;84.27;98101.46;1669226;85;21711;-75
2021/11/14 03:30:21;;;;;;;38.60;19.50;;;;;;;-1.34;84.23;98100.16;1693076;85;21456;-75
2021/11/14 03:32:48;;;;;;;40.05;20.08;;;;;;;-1.35;84.08;98100.12;1693002;85;21458;-76
2021/11/14 03:35:16;;;;;;;36.68;19.10;;;;;;;-1.36;84.05;98107.48;1692085;85;21553;-75
2021/11/14 03:37:42;;;;;;;36.00;18.00;;;;;;;-1.39;83.91;98100.50;1690182;85;21487;-75
2021/11/14 03:40:12;;;;;;;42.08;17.70;;;;;;;-1.40;83.95;98106.95;1659209;86;21017;-75
2021/11/14 03:42:39;;;;;;;30.35;17.10;;;;;;;-1.41;84.10;98105.21;1689958;85;21447;-75
2021/11/14 03:45:08;;;;;;;34.40;18.32;;;;;;;-1.42;84.37;98112.56;1689911;85;21056;-75
2021/11/14 03:47:38;;;;;;;35.43;17.30;;;;;;;-1.38;84.39;98103.55;1689294;85;21083;-75
2021/11/14 03:50:08;;;;;;;34.60;16.95;;;;;;;-1.36;84.29;98111.37;1689330;84;21009;-75
2021/11/14 03:52:35;;;;;;;38.90;17.57;;;;;;;-1.37;84.51;98102.69;1689747;83;21064;-75
2021/11/14 03:55:04;;;;;;;30.88;17.12;;;;;;;-1.33;84.36;98111.01;1692929;85;21060;-75
2021/11/14 03:57:31;;;;;;;31.65;17.05;;;;;;;-1.33;84.28;98116.65;1691936;84;21021;-75
2021/11/14 03:59:58;;;;;;;31.65;15.98;;;;;;;-1.34;84.37;98117.47;1690081;84;20993;-75
2021/11/14 04:02:25;;;;;;;34.33;16.62;;;;;;;-1.37;84.07;98118.28;1689873;85;21041;-75
2021/11/14 04:04:52;;;;;;;32.98;16.15;;;;;;;-1.38;84.33;98119.14;1690071;85;21005;-75
2021/11/14 04:07:18;;;;;;;32.08;18.30;;;;;;;-1.35;84.32;98128.31;1693455;84;21450;-75
2021/11/14 04:09:45;;;;;;;32.08;16.07;;;;;;;-1.37;84.29;98115.69;1694352;85;20997;-75
2021/11/14 04:12:11;;;;;;;33.05;17.57;;;;;;;-1.41;84.35;98122.97;1694544;85;21068;-75
2021/11/14 04:14:37;;;;;;;28.15;15.65;;;;;;;-1.40;84.28;98126.05;1694517;85;21024;-76
2021/11/14 04:17:06;;;;;;;35.38;17.90;;;;;;;-1.39;84.35;98126.91;1675367;85;21029;-75
2021/11/14 04:19:33;;;;;;;34.73;17.65;;;;;;;-1.47;84.37;98125.04;1665373;85;20973;-75
2021/11/14 04:22:00;;;;;;;34.43;16.05;;;;;;;-1.42;84.57;98122.96;1684798;85;21047;-75
2021/11/14 04:24:26;;;;;;;38.42;17.55;;;;;;;-1.40;84.51;98129.05;1681710;85;21024;-75
2021/11/14 04:26:53;;;;;;;38.85;18.87;;;;;;;-1.41;84.47;98122.11;1657310;87;21441;-75
2021/11/14 04:29:19;;;;;;;42.05;17.92;;;;;;;-1.43;84.22;98127.27;1667796;85;20970;-76
2021/11/14 04:31:45;;;;;;;37.30;18.17;;;;;;;-1.47;84.13;98130.65;1669733;85;21032;-75
2021/11/14 04:34:12;;;;;;;38.42;18.60;;;;;;;-1.51;84.34;98127.11;1672316;85;21077;-75
2021/11/14 04:36:38;;;;;;;34.20;17.65;;;;;;;-1.54;84.27;98130.94;1684718;84;21447;-75
2021/11/14 04:39:06;;;;;;;29.52;16.20;;;;;;;-1.60;84.30;98133.01;1684617;85;21076;-75
2021/11/14 04:41:33;;;;;;;31.15;16.52;;;;;;;-1.58;84.42;98136.91;1673179;85;21001;-75
2021/11/14 04:43:59;;;;;;;30.50;16.45;;;;;;;-1.58;84.46;98135.61;1677395;85;21013;-75
2021/11/14 04:46:26;;;;;;;29.12;16.23;;;;;;;-1.61;84.60;98134.27;1677078;85;21538;-75
2021/11/14 04:48:53;;;;;;;28.52;15.65;;;;;;;-1.61;84.52;98137.72;1684962;85;21057;-75
2021/11/14 04:51:19;;;;;;;31.48;15.48;;;;;;;-1.63;84.42;98143.33;1661819;84;21052;-75
2021/11/14 04:53:46;;;;;;;31.12;16.25;;;;;;;-1.66;84.61;98147.14;1687005;85;21116;-75
2021/11/14 04:56:12;;;;;;;30.08;15.50;;;;;;;-1.60;84.86;98143.81;1690394;85;21481;-75
2021/11/14 04:58:40;;;;;;;35.60;16.82;;;;;;;-1.58;85.62;98140.81;1669744;86;21015;-75
2021/11/14 05:01:07;;;;;;;28.73;14.80;;;;;;;-1.57;85.01;98148.20;1669599;86;20997;-75
2021/11/14 05:03:34;;;;;;;27.58;14.55;;;;;;;-1.57;84.56;98145.60;1669410;85;21068;-75
2021/11/14 05:06:00;;;;;;;25.30;14.47;;;;;;;-1.62;84.38;98152.02;1694101;84;21099;-75
2021/11/14 05:08:27;;;;;;;26.02;15.05;;;;;;;-1.68;84.36;98146.25;1681136;85;21076;-75
2021/11/14 05:10:53;;;;;;;27.85;14.98;;;;;;;-1.68;84.42;98150.55;1667993;84;21028;-76
2021/11/14 05:13:21;;;;;;;29.27;14.45;;;;;;;-1.71;84.43;98142.72;1665462;85;21036;-75
2021/11/14 05:15:47;;;;;;;31.10;15.00;;;;;;;-1.71;85.48;98150.06;1669440;85;21072;-75
2021/11/14 05:18:15;;;;;;;27.50;14.38;;;;;;;-1.67;85.21;98148.00;1669281;85;21036;-75
2021/11/14 05:20:41;;;;;;;32.75;14.60;;;;;;;-1.66;85.92;98152.34;1669415;85;21013;-75
2021/11/14 05:23:08;;;;;;;28.80;15.32;;;;;;;-1.63;85.75;98152.83;1673420;85;21009;-74
2021/11/14 05:25:35;;;;;;;25.27;14.13;;;;;;;-1.62;85.73;98153.31;1676753;85;21025;-75
2021/11/14 05:28:02;;;;;;;29.05;15.28;;;;;;;-1.60;85.44;98155.09;1676456;85;21521;-74
2021/11/14 05:30:28;;;;;;;28.00;14.07;;;;;;;-1.63;84.78;98157.62;1676644;85;21032;-75
2021/11/14 05:32:55;;;;;;;23.90;14.18;;;;;;;-1.65;84.77;98154.13;1675834;85;21037;-75
2021/11/14 05:35:22;;;;;;;24.15;13.30;;;;;;;-1.68;84.74;98151.85;1679152;84;21453;-75
2021/11/14 05:37:49;;;;;;;26.40;14.98;;;;;;;-1.69;84.89;98158.80;1684695;85;21032;-75
2021/11/14 05:40:16;;;;;;;27.65;14.73;;;;;;;-1.69;84.84;98156.60;1692918;85;21382;-75
2021/11/14 05:42:42;;;;;;;27.05;15.03;;;;;;;-1.69;84.86;98158.80;1694259;85;21067;-75
2021/11/14 05:45:09;;;;;;;25.27;14.73;;;;;;;-1.68;84.90;98158.35;1694263;85;21032;-75
2021/11/14 05:47:36;;;;;;;24.95;14.85;;;;;;;-1.66;84.95;98166.64;1682126;85;20989;-76
2021/11/14 05:50:07;;;;;;;31.23;14.40;;;;;;;-1.66;85.75;98161.88;1669899;85;21072;-76
2021/11/14 05:52:34;;;;;;;29.00;15.45;;;;;;;-1.63;85.11;98168.42;1669770;85;21013;-75
2021/11/14 05:55:00;;;;;;;31.33;15.80;;;;;;;-1.66;85.10;98170.53;1669627;85;21064;-75
2021/11/14 05:57:27;;;;;;;26.57;14.53;;;;;;;-1.66;85.04;98165.34;1670466;85;21029;-76
2021/11/14 06:00:06;;;;;;;32.67;15.03;;;;;;;-1.65;84.88;98172.73;1678439;85;21013;-75
2021/11/14 06:02:42;;;;;;;29.25;14.68;;;;;;;-1.65;86.05;98173.62;1682754;85;21044;-75
2021/11/14 06:07:37;;;;;;;29.67;15.35;;;;;;;-1.61;85.27;98168.91;1689214;84;21042;-75
2021/11/14 06:10:06;;;;;;;29.85;15.00;;;;;;;-1.58;85.49;98175.90;1692389;85;21482;-75
2021/11/14 06:12:34;;;;;;;28.00;15.70;;;;;;;-1.53;85.41;98182.52;1689680;85;21505;-76
2021/11/14 06:15:01;;;;;;;29.45;14.90;;;;;;;-1.52;85.28;98188.16;1689376;85;21045;-75
2021/11/14 06:17:28;;;;;;;33.05;16.95;;;;;;;-1.47;85.23;98187.84;1689248;85;21486;-76
2021/11/14 06:19:54;;;;;;;33.83;17.27;;;;;;;-1.45;85.12;98182.27;1689315;85;21012;-76
2021/11/14 06:22:21;;;;;;;36.45;16.55;;;;;;;-1.41;85.36;98181.91;1689156;83;22270;-76
2021/11/14 06:24:48;;;;;;;32.25;17.20;;;;;;;-1.37;85.12;98183.73;1693057;85;21044;-76
2021/11/14 06:27:15;;;;;;;39.45;18.25;;;;;;;-1.34;85.12;98185.08;1693086;84;21057;-76
2021/11/14 06:29:42;;;;;;;39.20;18.77;;;;;;;-1.30;85.20;98188.64;1692035;85;21017;-76
2021/11/14 06:32:09;;;;;;;35.58;18.65;;;;;;;-1.25;85.04;98184.41;1690512;85;21436;-76
2021/11/14 06:34:36;;;;;;;38.40;20.00;;;;;;;-1.21;84.93;98184.49;1692721;85;21459;-75
2021/11/14 06:37:04;;;;;;;37.60;19.17;;;;;;;-1.15;85.14;98184.16;1692910;85;21030;-76
2021/11/14 06:39:31;;;;;;;34.58;17.00;;;;;;;-1.12;84.90;98185.09;1692570;85;21058;-75
2021/11/14 06:41:58;;;;;;;34.70;18.07;;;;;;;-1.10;85.05;98188.63;1682379;85;21005;-75
2021/11/14 06:44:25;;;;;;;35.08;18.73;;;;;;;-1.03;85.14;98184.84;1663763;86;21061;-77
2021/11/14 06:46:52;;;;;;;33.85;16.95;;;;;;;-0.98;85.01;98179.30;1663878;86;21363;-75
2021/11/14 06:49:18;;;;;;;31.10;17.75;;;;;;;-0.95;84.98;98183.27;1687964;83;21078;-75
2021/11/14 06:51:45;;;;;;;32.42;18.40;;;;;;;-0.84;84.90;98186.06;1693270;85;21509;-75
2021/11/14 06:54:12;;;;;;;32.40;16.57;;;;;;;-0.80;85.08;98180.95;1669591;85;21041;-75
2021/11/14 06:56:38;;;;;;;29.90;15.68;;;;;;;-0.74;84.68;98185.83;1692764;85;21056;-78
2021/11/14 06:59:05;;;;;;;31.23;16.42;;;;;;;-0.69;84.70;98190.69;1693113;85;21092;-77
2021/11/14 07:01:31;;;;;;;34.80;16.20;;;;;;;-0.62;84.75;98183.88;1694332;84;20983;-77
2021/11/14 07:03:58;;;;;;;31.65;16.17;;;;;;;-0.57;84.72;98185.72;1691363;85;20991;-74
2021/11/14 07:06:24;;;;;;;29.75;16.97;;;;;;;-0.49;84.69;98180.66;1690502;85;21426;-74
2021/11/14 07:08:50;;;;;;;35.58;17.42;;;;;;;-0.44;84.42;98172.50;1697459;84;21048;-77
2021/11/14 07:11:17;;;;;;;32.17;17.23;;;;;;;-0.36;84.45;98181.73;1704335;84;21054;-77
2021/11/14 07:13:46;;;;;;;32.55;17.37;;;;;;;-0.27;84.36;98181.01;1705721;83;21471;-77
2021/11/14 07:16:13;;;;;;;34.00;16.90;;;;;;;-0.20;84.41;98181.98;1699169;84;21531;-76
2021/11/14 07:18:40;;;;;;;32.85;18.40;;;;;;;-0.09;84.40;98187.39;1696741;84;21059;-76
2021/11/14 07:21:08;;;;;;;31.52;18.07;;;;;;;0.00;84.22;98177.11;1702219;84;21001;-76
2021/11/14 07:23:34;;;;;;;36.93;17.70;;;;;;;0.06;84.30;98175.01;1713618;84;21117;-76
2021/11/14 07:26:00;;;;;;;34.43;18.95;;;;;;;0.13;84.11;98177.73;1709182;83;21040;-76
2021/11/14 07:28:27;;;;;;;29.02;16.60;;;;;;;0.23;84.06;98180.48;1701112;84;21014;-76
2021/11/14 07:30:54;;;;;;;32.13;16.67;;;;;;;0.30;84.00;98185.36;1704349;84;21402;-76
2021/11/14 07:33:20;;;;;;;34.88;16.75;;;;;;;0.36;83.94;98182.42;1713277;83;21061;-76
2021/11/14 07:35:47;;;;;;;36.83;17.17;;;;;;;0.45;83.81;98181.66;1709292;83;21013;-76
2021/11/14 07:38:13;;;;;;;29.98;16.95;;;;;;;0.55;83.72;98180.48;1696959;83;21006;-76
2021/11/14 07:40:40;;;;;;;32.28;17.00;;;;;;;0.63;83.54;98191.91;1700417;84;21585;-76
2021/11/14 07:43:08;;;;;;;29.72;16.85;;;;;;;0.71;83.51;98182.88;1705148;83;21045;-76
2021/11/14 07:45:34;;;;;;;32.20;15.63;;;;;;;0.78;83.53;98178.17;1697731;84;21008;-76
2021/11/14 07:48:01;;;;;;;34.45;16.70;;;;;;;0.85;83.56;98182.62;1700604;84;21065;-76
2021/11/14 07:50:29;;;;;;;34.73;17.10;;;;;;;0.91;83.41;98189.22;1702972;84;20962;-76
2021/11/14 07:52:58;;;;;;;30.62;16.20;;;;;;;0.99;83.48;98182.79;1706583;84;21069;-77
2021/11/14 07:55:25;;;;;;;33.08;17.25;;;;;;;1.07;83.44;98182.02;1699718;84;20969;-77
2021/11/14 07:57:52;;;;;;;33.38;18.02;;;;;;;1.16;83.31;98189.51;1697557;84;21004;-77
2021/11/14 08:00:22;;;;;;;35.48;17.05;;;;;;;1.26;83.23;98189.61;1698952;84;21017;-77
2021/11/14 08:02:50;;;;;;;28.98;16.15;;;;;;;1.36;83.23;98184.08;1700711;83;21121;-77
2021/11/14 08:05:18;;;;;;;35.68;16.82;;;;;;;1.46;82.82;98182.00;1700246;84;20978;-77
2021/11/14 08:07:47;;;;;;;32.13;17.62;;;;;;;1.57;82.95;98186.00;1701140;84;22140;-77
2021/11/14 08:10:17;;;;;;;28.75;16.97;;;;;;;1.67;82.89;98176.53;1706816;84;21068;-77
2021/11/14 08:12:44;;;;;;;29.10;16.23;;;;;;;1.76;82.79;98182.26;1694618;85;20970;-76
2021/11/14 08:15:11;;;;;;;29.37;16.70;;;;;;;1.85;82.54;98181.03;1694531;85;21060;-76
2021/11/14 08:17:38;;;;;;;30.97;16.12;;;;;;;1.94;82.19;98186.34;1694701;85;21018;-76
2021/11/14 08:20:05;;;;;;;29.70;16.77;;;;;;;2.01;81.68;98171.59;1709108;84;21003;-76
2021/11/14 08:22:32;;;;;;;30.23;16.05;;;;;;;2.11;82.00;98168.17;1709664;84;20971;-76
2021/11/14 08:25:00;;;;;;;27.93;15.95;;;;;;;2.20;82.04;98171.73;1701243;84;21454;-76
2021/11/14 08:27:30;;;;;;;25.70;16.12;;;;;;;2.31;81.67;98162.63;1701737;84;20983;-76
2021/11/14 08:29:59;;;;;;;30.92;16.57;;;;;;;2.38;81.66;98169.66;1671125;85;21059;-76
2021/11/14 08:32:27;;;;;;;28.62;15.85;;;;;;;2.47;81.38;98167.52;1679661;85;21034;-76
2021/11/14 08:34:54;;;;;;;26.05;15.80;;;;;;;2.55;81.11;98167.14;1694584;85;21025;-76
2021/11/14 08:37:21;;;;;;;34.33;16.87;;;;;;;2.65;80.75;98170.66;1692191;85;21059;-77
2021/11/14 08:39:49;;;;;;;26.82;16.02;;;;;;;2.74;80.87;98171.17;1694568;85;21037;-77
2021/11/14 08:42:17;;;;;;;25.40;15.05;;;;;;;2.83;80.27;98169.88;1691780;85;21056;-77
2021/11/14 08:44:44;;;;;;;25.08;14.55;;;;;;;2.93;80.47;98171.22;1666363;86;21063;-77
2021/11/14 08:47:11;;;;;;;29.50;15.13;;;;;;;3.01;80.43;98167.78;1666495;86;21120;-77
2021/11/14 08:49:39;;;;;;;27.20;14.45;;;;;;;3.10;80.13;98163.43;1685707;84;21023;-77
2021/11/14 08:52:07;;;;;;;22.48;14.50;;;;;;;3.19;79.86;98172.63;1709691;84;21094;-77
2021/11/14 08:54:35;;;;;;;24.45;14.33;;;;;;;3.29;77.94;98170.47;1682361;84;21024;-77
2021/11/14 08:57:02;;;;;;;26.42;14.23;;;;;;;3.39;78.65;98174.42;1669474;85;21044;-77
2021/11/14 08:59:31;;;;;;;26.25;14.65;;;;;;;3.50;78.68;98168.79;1686860;85;21031;-76
2021/11/14 09:01:59;;;;;;;24.63;15.00;;;;;;;3.64;78.48;98167.91;1704214;84;21003;-76
2021/11/14 09:04:26;;;;;;;28.38;15.90;;;;;;;3.76;78.57;98166.63;1705612;84;21044;-77
2021/11/14 09:06:55;;;;;;;35.92;19.80;;;;;;;3.86;77.95;98166.17;1694485;85;21032;-77
2021/11/14 09:09:23;;;;;;;37.83;21.25;;;;;;;3.98;77.30;98153.50;1696434;84;21132;-77
2021/11/14 09:11:50;;;;;;;38.00;21.12;;;;;;;4.09;77.24;98158.33;1696689;85;21016;-77
2021/11/14 09:14:18;;;;;;;35.48;22.65;;;;;;;4.21;77.37;98157.87;1682704;85;21052;-78
2021/11/14 09:16:50;;;;;;;36.70;22.20;;;;;;;4.34;75.87;98157.41;1609237;89;21055;-79
2021/11/14 09:19:17;;;;;;;35.95;22.10;;;;;;;4.48;76.71;98157.36;1691366;83;21071;-77
2021/11/14 09:21:45;;;;;;;41.05;24.32;;;;;;;4.62;73.87;98155.58;1696786;85;21134;-77
2021/11/14 09:24:12;;;;;;;37.33;23.65;;;;;;;4.74;74.12;98156.44;1696760;84;21008;-79
2021/11/14 09:26:38;;;;;;;35.68;22.32;;;;;;;4.86;74.40;98152.44;1695921;85;21049;-80
2021/11/14 09:29:06;;;;;;;40.90;23.50;;;;;;;4.95;72.83;98150.23;1659428;85;20983;-78
2021/11/14 09:31:35;;;;;;;39.50;24.40;;;;;;;5.06;73.47;98148.84;1698304;84;21022;-81
2021/11/14 09:34:04;;;;;;;38.75;23.70;;;;;;;5.20;73.59;98148.80;1698801;84;21010;-80
2021/11/14 09:36:34;;;;;;;41.60;25.08;;;;;;;5.30;72.75;98145.66;1699137;84;21447;-82
2021/11/14 09:39:06;;;;;;;49.40;30.50;;;;;;;5.44;73.10;98142.94;1695893;85;21044;-83
2021/11/14 09:41:37;;;;;;;57.55;32.28;;;;;;;5.56;71.50;98140.67;1696676;85;21143;-80
2021/11/14 09:44:04;;;;;;;41.95;25.85;;;;;;;5.69;70.14;98142.77;1696436;83;21064;-78
2021/11/14 09:46:31;;;;;;;38.02;24.20;;;;;;;5.82;70.26;98135.68;1694663;83;21051;-83
2021/11/14 09:49:00;;;;;;;39.00;23.80;;;;;;;5.93;68.88;98133.83;1694890;85;21087;-83
2021/11/14 09:51:27;;;;;;;34.45;23.50;;;;;;;6.08;69.56;98121.45;1695575;83;21105;-82
2021/11/14 09:53:53;;;;;;;38.55;23.00;;;;;;;6.24;68.14;98127.88;1693965;84;21009;-85
2021/11/14 09:56:20;;;;;;;39.95;23.55;;;;;;;6.36;67.41;98131.72;1695579;84;21096;-81
2021/11/14 09:58:47;;;;;;;36.83;23.50;;;;;;;6.49;67.38;98125.87;1692158;83;20981;-78
2021/11/14 10:01:13;;;;;;;34.67;23.10;;;;;;;6.59;66.40;98118.72;1715133;83;20996;-76
2021/11/14 10:03:40;;;;;;;35.28;22.48;;;;;;;6.67;68.55;98110.30;1692654;83;21091;-78
2021/11/14 10:06:07;;;;;;;39.73;22.15;;;;;;;6.76;67.65;98113.25;1690881;84;21069;-74
2021/11/14 10:08:45;;;;;;;38.10;23.30;;;;;;;6.86;66.72;98104.34;1694027;83;21058;-75
2021/11/14 10:11:12;;;;;;;35.68;22.73;;;;;;;6.98;66.64;98099.83;1677725;84;21012;-83
2021/11/14 10:13:39;;;;;;;37.28;23.30;;;;;;;7.09;67.29;98100.97;1688588;84;21122;-83
2021/11/14 10:16:10;;;;;;;37.93;24.15;;;;;;;7.20;64.64;98094.25;1643383;86;21439;-82
2021/11/14 10:18:41;;;;;;;35.88;22.62;;;;;;;7.32;64.21;98095.83;1665318;85;21468;-82
2021/11/14 10:21:08;;;;;;;37.78;23.62;;;;;;;7.43;64.82;98093.05;1689140;85;21592;-80
2021/11/14 10:23:36;;;;;;;37.03;23.18;;;;;;;7.53;63.10;98086.27;1689359;85;20992;-81
2021/11/14 10:26:10;;;;;;;40.70;23.65;;;;;;;7.63;63.78;98087.00;1690204;85;21044;-82
2021/11/14 10:28:46;;;;;;;37.75;24.23;;;;;;;7.83;63.76;98091.52;1690300;85;21057;-81
2021/11/14 10:31:17;;;;;;;34.45;23.02;;;;;;;8.64;59.06;98091.41;1692105;83;21067;-83
2021/11/14 10:33:44;;;;;;;39.98;24.27;;;;;;;9.91;60.82;98081.05;1692210;79;21248;-81
2021/11/14 10:36:10;;;;;;;31.65;23.27;;;;;;;11.02;57.38;98075.40;1692333;79;21045;-82
2021/11/14 10:38:38;;;;;;;31.17;21.37;;;;;;;12.07;55.49;98072.97;1689615;85;21040;-82
2021/11/14 10:41:09;;;;;;;27.80;20.95;;;;;;;12.93;49.86;98066.81;1689653;85;21021;-82
2021/11/14 10:43:40;;;;;;;29.92;21.23;;;;;;;14.00;54.77;98061.72;1690284;85;21454;-83
2021/11/14 10:46:20;;;;;;;41.70;28.80;;;;;;;14.76;48.55;98054.44;1690201;85;21041;-82
2021/11/14 10:48:48;;;;;;;29.65;23.05;;;;;;;15.39;48.46;98051.06;1691378;85;21032;-82
2021/11/14 10:51:16;;;;;;;36.45;23.60;;;;;;;16.33;47.06;98050.47;1693458;85;21094;-82
2021/11/14 10:53:45;;;;;;;35.33;26.05;;;;;;;17.11;46.06;98055.25;1695370;84;21089;-82
2021/11/14 10:56:14;;;;;;;35.68;26.02;;;;;;;17.13;38.79;98054.70;1695335;84;21040;-82
2021/11/14 10:58:43;;;;;;;35.38;26.33;;;;;;;17.50;39.84;98043.73;1694730;85;21036;-83
2021/11/14 11:01:16;;;;;;;36.20;27.75;;;;;;;18.14;37.59;98048.10;1691474;85;20958;-82
2021/11/14 11:03:48;;;;;;;41.53;26.70;;;;;;;18.60;34.43;98045.78;1689688;84;21018;-83
2021/11/14 11:06:27;;;;;;;36.05;27.20;;;;;;;19.15;38.22;98037.07;1689310;85;21031;-83
2021/11/14 11:09:06;;;;;;;35.85;26.57;;;;;;;19.45;35.48;98038.73;1689302;84;21057;-81
2021/11/14 11:11:42;;;;;;;30.50;24.35;;;;;;;19.85;36.42;98034.35;1689620;85;21009;-82
2021/11/14 11:14:10;;;;;;;30.45;22.58;;;;;;;20.16;34.62;98037.67;1690158;85;21037;-81
2021/11/14 11:16:37;;;;;;;27.27;22.75;;;;;;;20.96;31.83;98042.02;1690144;85;21017;-82
2021/11/14 11:19:08;;;;;;;25.65;22.05;;;;;;;21.25;32.63;98034.64;1669281;85;21072;-81
2021/11/14 11:21:44;;;;;;;28.52;22.50;;;;;;;21.57;33.67;98029.56;1662887;86;21040;-80
2021/11/14 11:24:20;;;;;;;28.32;23.22;;;;;;;21.81;31.62;98029.20;1683060;85;21024;-81
2021/11/14 11:27:06;;;;;;;31.17;22.55;;;;;;;22.02;29.88;98036.16;1690005;85;21037;-81